createdAt,value
2023-01-19T00:00:30.306Z,11.70
2023-01-19T00:02:56.739Z,11.17
2023-01-19T00:05:23.091Z,10.03
2023-01-19T00:07:49.419Z,10.70
2023-01-19T00:10:16.209Z,10.80
2023-01-19T00:12:42.607Z,10.67
2023-01-19T00:15:09.493Z,11.13
2023-01-19T00:17:35.914Z,11.20
2023-01-19T00:20:03.763Z,11.10
2023-01-19T00:22:30.101Z,12.77
2023-01-19T00:24:56.485Z,9.93
2023-01-19T00:27:22.810Z,11.07
2023-01-19T00:29:49.342Z,9.53
2023-01-19T00:32:17.700Z,9.07
2023-01-19T00:34:49.320Z,10.90
2023-01-19T00:37:17.165Z,10.70
2023-01-19T00:39:43.781Z,10.17
2023-01-19T00:42:31.680Z,11.50
2023-01-19T00:44:58.193Z,10.40
2023-01-19T00:47:24.520Z,10.20
2023-01-19T00:49:50.844Z,11.20
2023-01-19T00:52:17.182Z,11.20
2023-01-19T00:54:43.550Z,10.40
2023-01-19T00:57:09.890Z,10.80
2023-01-19T00:59:36.226Z,9.57
2023-01-19T01:02:02.914Z,9.83
2023-01-19T01:04:29.888Z,10.77
2023-01-19T01:06:56.217Z,10.17
2023-01-19T01:09:23.453Z,10.10
2023-01-19T01:11:49.826Z,9.80
2023-01-19T01:14:18.004Z,9.80
2023-01-19T01:16:44.619Z,9.13
2023-01-19T01:19:11.135Z,10.27
2023-01-19T01:21:37.481Z,9.27
2023-01-19T01:24:04.231Z,10.50
2023-01-19T01:26:30.553Z,10.30
2023-01-19T01:28:56.900Z,9.60
2023-01-19T01:31:23.247Z,9.50
2023-01-19T01:33:49.767Z,10.20
2023-01-19T01:36:16.571Z,10.30
2023-01-19T01:38:43.140Z,10.30
2023-01-19T01:41:09.661Z,11.53
2023-01-19T01:44:06.177Z,10.50
2023-01-19T01:46:32.716Z,10.30
2023-01-19T01:49:16.051Z,11.63
2023-01-19T01:51:47.156Z,10.47
2023-01-19T01:54:27.901Z,11.40
2023-01-19T01:56:59.508Z,10.60
2023-01-19T01:59:38.970Z,9.93
2023-01-19T02:02:28.678Z,8.90
2023-01-19T02:05:04.193Z,9.70
2023-01-19T02:07:59.656Z,10.07
2023-01-19T02:10:44.964Z,10.47
2023-01-19T02:13:21.328Z,11.00
2023-01-19T02:15:50.107Z,9.80
2023-01-19T02:18:17.103Z,11.67
2023-01-19T02:20:52.136Z,10.33
2023-01-19T02:23:42.652Z,11.53
2023-01-19T02:26:13.047Z,10.20
2023-01-19T02:28:44.551Z,11.40
2023-01-19T02:31:11.418Z,10.93
2023-01-19T02:33:37.890Z,10.13
2023-01-19T02:36:05.935Z,10.63
2023-01-19T02:38:32.937Z,11.60
2023-01-19T02:41:02.966Z,11.60
2023-01-19T02:43:30.390Z,12.00
2023-01-19T02:45:57.278Z,12.13
2023-01-19T02:48:23.643Z,10.70
2023-01-19T02:50:53.595Z,10.97
2023-01-19T02:53:57.247Z,11.90
2023-01-19T02:56:54.886Z,9.90
2023-01-19T02:59:23.871Z,10.97
2023-01-19T03:02:08.861Z,12.17
2023-01-19T03:04:45.696Z,12.27
2023-01-19T03:07:24.629Z,12.40
2023-01-19T03:10:08.080Z,11.90
2023-01-19T03:12:50.463Z,11.47
2023-01-19T03:15:25.848Z,12.07
2023-01-19T03:17:53.819Z,10.43
2023-01-19T03:20:24.610Z,12.30
2023-01-19T03:23:00.497Z,12.03
2023-01-19T03:25:31.043Z,11.73
2023-01-19T03:27:57.915Z,10.93
2023-01-19T03:30:29.219Z,11.37
2023-01-19T03:33:05.034Z,11.03
2023-01-19T03:35:35.534Z,12.63
2023-01-19T03:38:06.063Z,11.73
2023-01-19T03:40:34.227Z,10.00
2023-01-19T03:43:02.518Z,10.30
2023-01-19T03:45:33.344Z,10.40
2023-01-19T03:47:59.838Z,11.37
2023-01-19T03:50:29.516Z,10.30
2023-01-19T03:53:15.959Z,10.37
2023-01-19T03:55:46.443Z,10.33
2023-01-19T03:58:13.200Z,10.70
2023-01-19T04:00:39.882Z,9.60
2023-01-19T04:03:11.772Z,10.60
2023-01-19T04:05:39.399Z,9.70
2023-01-19T04:08:08.556Z,11.10
2023-01-19T04:10:34.884Z,9.83
2023-01-19T04:13:02.213Z,11.93
2023-01-19T04:15:29.613Z,10.17
2023-01-19T04:18:01.748Z,11.40
2023-01-19T04:20:29.126Z,9.90
2023-01-19T04:22:59.518Z,11.03
2023-01-19T04:25:26.427Z,10.97
2023-01-19T04:27:53.292Z,10.37
2023-01-19T04:30:19.906Z,11.37
2023-01-19T04:32:46.770Z,10.50
2023-01-19T04:35:13.147Z,11.30
2023-01-19T04:37:40.017Z,11.20
2023-01-19T04:40:07.160Z,10.80
2023-01-19T04:42:33.472Z,11.33
2023-01-19T04:44:59.789Z,11.20
2023-01-19T04:47:26.167Z,11.10
2023-01-19T04:49:52.529Z,11.77
2023-01-19T04:52:19.379Z,10.47
2023-01-19T04:54:45.714Z,11.40
2023-01-19T04:57:12.070Z,10.90
2023-01-19T04:59:38.401Z,10.57
2023-01-19T05:02:04.771Z,11.43
2023-01-19T05:04:31.103Z,12.20
2023-01-19T05:06:58.218Z,10.60
2023-01-19T05:09:25.779Z,10.97
2023-01-19T05:11:52.137Z,11.77
2023-01-19T05:14:18.783Z,11.63
2023-01-19T05:16:45.153Z,11.77
2023-01-19T05:19:11.523Z,12.43
2023-01-19T05:21:37.939Z,10.43
2023-01-19T05:24:04.368Z,12.47
2023-01-19T05:26:30.713Z,12.53
2023-01-19T05:28:57.187Z,14.10
2023-01-19T05:31:23.616Z,12.00
2023-01-19T05:33:50.064Z,12.73
2023-01-19T05:36:16.435Z,12.00
2023-01-19T05:38:42.763Z,11.57
2023-01-19T05:41:09.100Z,12.60
2023-01-19T05:43:35.411Z,11.90
2023-01-19T05:46:04.586Z,10.97
2023-01-19T05:48:31.594Z,11.17
2023-01-19T05:50:59.488Z,11.87
2023-01-19T05:53:26.149Z,11.20
2023-01-19T05:55:52.509Z,11.77
2023-01-19T05:58:19.071Z,12.80
2023-01-19T06:00:45.464Z,11.33
2023-01-19T06:03:12.437Z,12.37
2023-01-19T06:05:39.395Z,10.90
2023-01-19T06:08:05.981Z,11.77
2023-01-19T06:10:32.339Z,10.80
2023-01-19T06:12:59.395Z,10.80
2023-01-19T06:15:25.965Z,11.10
2023-01-19T06:17:52.306Z,12.87
2023-01-19T06:20:18.656Z,11.70
2023-01-19T06:22:44.989Z,13.10
2023-01-19T06:25:11.826Z,10.50
2023-01-19T06:27:39.713Z,10.90
2023-01-19T06:30:06.758Z,12.00
2023-01-19T06:32:33.096Z,12.23
2023-01-19T06:34:59.425Z,11.17
2023-01-19T06:37:27.167Z,11.47
2023-01-19T06:39:53.724Z,9.83
2023-01-19T06:42:20.061Z,11.80
2023-01-19T06:44:47.894Z,12.00
2023-01-19T06:47:16.379Z,10.57
2023-01-19T06:49:43.427Z,10.83
2023-01-19T06:52:11.367Z,10.87
2023-01-19T06:54:37.850Z,10.20
2023-01-19T06:57:04.484Z,10.50
2023-01-19T06:59:31.660Z,10.57
2023-01-19T07:01:58.919Z,11.63
2023-01-19T07:04:26.963Z,10.10
2023-01-19T07:06:53.428Z,11.90
2023-01-19T07:09:20.445Z,11.00
2023-01-19T07:11:48.065Z,11.77
2023-01-19T07:14:15.395Z,11.53
2023-01-19T07:16:41.827Z,11.17
2023-01-19T07:19:10.550Z,10.77
2023-01-19T07:21:40.065Z,11.90
2023-01-19T07:24:06.605Z,12.23
2023-01-19T07:26:32.998Z,12.20
2023-01-19T07:28:59.364Z,10.83
2023-01-19T07:31:25.929Z,10.83
2023-01-19T07:33:52.391Z,11.73
2023-01-19T07:36:18.740Z,11.13
2023-01-19T07:38:45.091Z,10.90
2023-01-19T07:41:11.923Z,11.90
2023-01-19T07:43:38.283Z,12.20
2023-01-19T07:46:06.550Z,10.53
2023-01-19T07:48:33.159Z,10.50
2023-01-19T07:51:01.237Z,10.50
2023-01-19T07:53:27.621Z,10.20
2023-01-19T07:55:56.343Z,11.17
2023-01-19T07:58:24.476Z,10.17
2023-01-19T08:00:50.862Z,9.57
2023-01-19T08:03:17.744Z,10.00
2023-01-19T08:05:45.236Z,10.30
2023-01-19T08:08:12.413Z,10.50
2023-01-19T08:10:38.733Z,10.00
2023-01-19T08:13:05.111Z,10.93
2023-01-19T08:15:31.639Z,10.33
2023-01-19T08:18:00.470Z,11.07
2023-01-19T08:20:28.853Z,10.10
2023-01-19T08:22:59.994Z,10.13
2023-01-19T08:25:46.966Z,10.40
2023-01-19T08:28:15.617Z,8.67
2023-01-19T08:30:44.300Z,9.80
2023-01-19T08:33:13.962Z,10.60
2023-01-19T08:35:42.542Z,9.20
2023-01-19T08:38:10.307Z,10.23
2023-01-19T08:40:39.059Z,9.70
2023-01-19T08:43:08.923Z,9.23
2023-01-19T08:45:37.127Z,8.93
2023-01-19T08:48:06.120Z,9.30
2023-01-19T08:50:33.782Z,9.37
2023-01-19T08:53:02.352Z,9.73
2023-01-19T08:55:29.948Z,10.27
2023-01-19T08:57:57.867Z,10.17
2023-01-19T09:00:27.417Z,9.70
2023-01-19T09:02:54.692Z,9.17
2023-01-19T09:05:21.141Z,8.70
2023-01-19T09:07:48.327Z,8.90
2023-01-19T09:10:15.684Z,10.00
2023-01-19T09:12:43.396Z,9.07
2023-01-19T09:15:10.835Z,8.97
2023-01-19T09:17:37.370Z,8.77
2023-01-19T09:20:05.812Z,9.40
2023-01-19T09:22:33.334Z,8.13
2023-01-19T09:25:00.229Z,8.47
2023-01-19T09:27:26.553Z,8.60
2023-01-19T09:29:53.980Z,8.33
2023-01-19T09:32:21.247Z,10.00
2023-01-19T09:34:47.870Z,8.00
2023-01-19T09:37:16.013Z,8.17
2023-01-19T09:39:42.530Z,8.90
2023-01-19T09:42:23.316Z,8.93
2023-01-19T09:44:50.928Z,9.70
2023-01-19T09:47:23.392Z,9.10
2023-01-19T09:49:58.257Z,8.00
2023-01-19T09:52:24.740Z,8.77
2023-01-19T09:54:56.533Z,8.70
2023-01-19T09:57:25.009Z,7.90
2023-01-19T09:59:51.743Z,7.70
2023-01-19T10:02:20.761Z,8.27
2023-01-19T10:05:22.588Z,7.60
2023-01-19T10:07:58.600Z,8.00
2023-01-19T10:10:27.925Z,8.67
2023-01-19T10:13:21.821Z,8.00
2023-01-19T10:16:14.266Z,7.70
2023-01-19T10:18:51.404Z,8.23
2023-01-19T10:21:22.549Z,7.63
2023-01-19T10:24:14.278Z,8.67
2023-01-19T10:26:45.339Z,7.63
2023-01-19T10:29:21.012Z,7.63
2023-01-19T10:31:51.674Z,7.97
2023-01-19T10:34:23.491Z,6.23
2023-01-19T10:36:58.934Z,7.90
2023-01-19T10:39:25.463Z,7.60
2023-01-19T10:41:53.413Z,7.97
2023-01-19T10:44:28.889Z,7.17
2023-01-19T10:46:58.330Z,7.30
2023-01-19T10:49:27.650Z,7.07
2023-01-19T10:51:56.033Z,7.53
2023-01-19T10:54:23.944Z,7.37
2023-01-19T10:56:57.017Z,7.70
2023-01-19T10:59:50.920Z,7.10
2023-01-19T11:02:21.119Z,6.63
2023-01-19T11:04:51.113Z,7.73
2023-01-19T11:07:23.729Z,5.67
2023-01-19T11:10:22.354Z,6.67
2023-01-19T11:12:56.987Z,5.63
2023-01-19T11:15:48.707Z,6.10
2023-01-19T11:18:29.809Z,5.97
2023-01-19T11:20:59.369Z,6.27
2023-01-19T11:23:28.866Z,6.80
2023-01-19T11:26:00.354Z,6.63
2023-01-19T11:28:40.340Z,6.70
2023-01-19T11:31:15.976Z,6.57
2023-01-19T11:33:49.776Z,6.60
2023-01-19T11:36:21.019Z,6.17
2023-01-19T11:38:50.538Z,6.20
2023-01-19T11:41:31.681Z,5.83
2023-01-19T11:44:09.230Z,6.13
2023-01-19T11:46:39.597Z,6.30
2023-01-19T11:49:13.762Z,7.07
2023-01-19T11:52:15.150Z,6.37
2023-01-19T11:54:48.215Z,5.57
2023-01-19T11:57:17.072Z,5.73
2023-01-19T11:59:44.415Z,6.10
2023-01-19T12:02:28.507Z,6.40
2023-01-19T12:05:06.212Z,6.00
2023-01-19T12:07:35.176Z,5.10
2023-01-19T12:10:26.259Z,4.90
2023-01-19T12:12:53.395Z,6.10
2023-01-19T12:15:36.498Z,6.23
2023-01-19T12:18:05.387Z,5.70
2023-01-19T12:20:39.052Z,5.87
2023-01-19T12:23:11.168Z,5.80
2023-01-19T12:25:44.234Z,6.10
2023-01-19T12:28:14.596Z,5.53
2023-01-19T12:30:41.553Z,5.40
2023-01-19T12:33:40.451Z,4.90
2023-01-19T12:36:36.220Z,5.20
2023-01-19T12:39:02.473Z,5.97
2023-01-19T12:41:37.618Z,4.97
2023-01-19T12:44:16.291Z,5.70
2023-01-19T12:46:45.946Z,5.23
2023-01-19T12:49:21.032Z,5.00
2023-01-19T12:51:48.993Z,5.83
2023-01-19T12:54:31.436Z,5.77
2023-01-19T12:57:08.208Z,6.30
2023-01-19T12:59:37.224Z,7.20
2023-01-19T13:02:25.456Z,5.80
2023-01-19T13:05:32.504Z,5.30
2023-01-19T13:08:02.418Z,6.07
2023-01-19T13:10:53.643Z,6.13
2023-01-19T13:13:21.319Z,5.23
2023-01-19T13:15:47.818Z,6.00
2023-01-19T13:18:23.026Z,6.03
2023-01-19T13:21:00.212Z,5.83
2023-01-19T13:23:27.425Z,5.83
2023-01-19T13:26:01.396Z,5.80
2023-01-19T13:28:36.413Z,5.93
2023-01-19T13:31:03.711Z,7.17
2023-01-19T13:33:40.864Z,6.67
2023-01-19T13:36:20.809Z,6.77
2023-01-19T13:38:50.827Z,6.00
2023-01-19T13:41:22.345Z,5.47
2023-01-19T13:43:57.268Z,5.77
2023-01-19T13:46:26.279Z,5.67
2023-01-19T13:49:00.055Z,5.43
2023-01-19T13:51:26.843Z,6.47
2023-01-19T13:53:54.744Z,5.10
2023-01-19T13:56:23.269Z,5.93
2023-01-19T13:59:10.105Z,6.00
2023-01-19T14:01:38.389Z,5.40
2023-01-19T14:04:05.279Z,5.73
2023-01-19T14:06:47.647Z,5.90
2023-01-19T14:09:18.944Z,5.93
2023-01-19T14:11:47.485Z,5.23
2023-01-19T14:14:25.989Z,5.30
2023-01-19T14:16:52.740Z,5.03
2023-01-19T14:19:19.419Z,5.00
2023-01-19T14:21:46.000Z,4.80
2023-01-19T14:24:19.544Z,4.40
2023-01-19T14:26:48.320Z,5.50
2023-01-19T14:29:19.678Z,5.33
2023-01-19T14:31:52.767Z,6.30
2023-01-19T14:34:36.116Z,5.93
2023-01-19T14:37:04.886Z,5.00
2023-01-19T14:39:34.236Z,6.90
2023-01-19T14:42:04.040Z,5.27
2023-01-19T14:44:40.875Z,4.63
2023-01-19T14:47:25.158Z,4.90
2023-01-19T14:49:51.612Z,4.83
2023-01-19T14:52:54.031Z,5.20
2023-01-19T14:55:25.370Z,4.67
2023-01-19T14:57:51.696Z,5.00
2023-01-19T15:00:19.937Z,4.70
2023-01-19T15:02:47.286Z,5.37
2023-01-19T15:05:14.423Z,5.60
2023-01-19T15:07:43.500Z,5.20
2023-01-19T15:10:21.122Z,4.30
2023-01-19T15:12:49.002Z,4.23
2023-01-19T15:15:25.643Z,4.40
2023-01-19T15:17:54.187Z,4.10
2023-01-19T15:20:23.005Z,4.93
2023-01-19T15:22:49.919Z,4.23
2023-01-19T15:25:21.037Z,4.97
2023-01-19T15:27:48.443Z,4.10
2023-01-19T15:30:27.704Z,4.57
2023-01-19T15:32:54.025Z,4.60
2023-01-19T15:35:22.963Z,4.90
2023-01-19T15:37:50.397Z,4.60
2023-01-19T15:40:18.284Z,4.47
2023-01-19T15:42:45.240Z,4.20
2023-01-19T15:45:36.187Z,5.03
2023-01-19T15:48:08.088Z,4.23
2023-01-19T15:50:39.519Z,4.60
2023-01-19T15:53:07.123Z,5.13
2023-01-19T15:55:33.468Z,4.90
2023-01-19T15:58:02.494Z,5.70
2023-01-19T16:00:31.598Z,4.53
2023-01-19T16:02:58.905Z,4.57
2023-01-19T16:05:37.430Z,4.67
2023-01-19T16:08:08.638Z,4.43
2023-01-19T16:10:35.254Z,5.20
2023-01-19T16:13:01.595Z,5.43
2023-01-19T16:15:27.959Z,5.00
2023-01-19T16:17:54.282Z,4.50
2023-01-19T16:20:20.600Z,4.43
2023-01-19T16:22:46.946Z,3.80
2023-01-19T16:25:13.308Z,4.63
2023-01-19T16:27:39.678Z,4.77
2023-01-19T16:30:06.699Z,4.90
2023-01-19T16:32:33.779Z,4.70
2023-01-19T16:35:00.118Z,4.90
2023-01-19T16:37:28.044Z,4.77
2023-01-19T16:39:54.510Z,5.43
2023-01-19T16:42:20.938Z,4.83
2023-01-19T16:45:05.388Z,4.70
2023-01-19T16:47:31.732Z,5.00
2023-01-19T16:49:58.036Z,4.60
2023-01-19T16:52:24.382Z,5.27
2023-01-19T16:54:54.487Z,5.80
2023-01-19T16:57:20.816Z,5.73
2023-01-19T16:59:47.256Z,5.00
2023-01-19T17:02:13.732Z,5.50
2023-01-19T17:04:40.088Z,5.80
2023-01-19T17:07:06.423Z,6.10
2023-01-19T17:09:33.919Z,4.93
2023-01-19T17:12:00.266Z,5.17
2023-01-19T17:14:26.728Z,5.47
2023-01-19T17:16:53.053Z,8.40
2023-01-19T17:19:22.127Z,5.40
2023-01-19T17:21:49.885Z,5.40
2023-01-19T17:24:17.015Z,4.90
2023-01-19T17:26:45.791Z,5.27
2023-01-19T17:29:12.214Z,5.13
2023-01-19T17:31:38.829Z,5.00
2023-01-19T17:34:05.634Z,5.93
2023-01-19T17:36:32.851Z,5.53
2023-01-19T17:39:01.008Z,6.50
2023-01-19T17:41:30.596Z,7.10
2023-01-19T17:43:57.987Z,5.57
2023-01-19T17:46:26.649Z,5.27
2023-01-19T17:48:54.561Z,6.27
2023-01-19T17:51:22.918Z,6.63
2023-01-19T17:53:50.244Z,8.10
2023-01-19T17:56:18.772Z,9.30
2023-01-19T17:58:45.127Z,8.70
2023-01-19T18:01:14.934Z,7.60
2023-01-19T18:03:42.283Z,6.77
2023-01-19T18:06:09.312Z,6.30
2023-01-19T18:08:41.952Z,6.27
2023-01-19T18:11:09.417Z,7.07
2023-01-19T18:13:37.208Z,8.90
2023-01-19T18:16:09.701Z,9.57
2023-01-19T18:18:37.128Z,7.73
2023-01-19T18:21:06.657Z,8.43
2023-01-19T18:23:33.479Z,7.37
2023-01-19T18:26:05.907Z,8.00
2023-01-19T18:28:32.599Z,8.83
2023-01-19T18:30:59.739Z,6.83
2023-01-19T18:33:27.529Z,7.53
2023-01-19T18:35:54.452Z,7.13
2023-01-19T18:38:20.899Z,7.47
2023-01-19T18:40:47.245Z,8.40
2023-01-19T18:43:13.675Z,8.40
2023-01-19T18:45:44.271Z,12.10
2023-01-19T18:48:10.590Z,9.00
2023-01-19T18:50:37.607Z,7.50
2023-01-19T18:53:03.942Z,8.23
2023-01-19T18:55:30.477Z,8.00
2023-01-19T18:57:56.799Z,8.33
2023-01-19T19:00:23.239Z,6.80
2023-01-19T19:02:49.576Z,7.20
2023-01-19T19:05:15.983Z,8.37
2023-01-19T19:07:42.311Z,7.40
2023-01-19T19:10:09.528Z,7.90
2023-01-19T19:12:35.847Z,7.23
2023-01-19T19:15:02.235Z,8.10
2023-01-19T19:17:28.576Z,7.63
2023-01-19T19:19:54.911Z,6.00
2023-01-19T19:22:21.303Z,7.13
2023-01-19T19:24:47.625Z,7.10
2023-01-19T19:27:14.310Z,7.67
2023-01-19T19:29:41.356Z,6.90
2023-01-19T19:32:07.713Z,7.50
2023-01-19T19:34:34.087Z,7.87
2023-01-19T19:37:01.371Z,7.20
2023-01-19T19:39:28.396Z,7.60
2023-01-19T19:41:54.723Z,7.43
2023-01-19T19:44:21.164Z,7.90
2023-01-19T19:46:47.721Z,7.40
2023-01-19T19:49:15.289Z,7.53
2023-01-19T19:51:41.872Z,8.63
2023-01-19T19:54:08.835Z,7.40
2023-01-19T19:56:35.201Z,22.67
2023-01-19T19:59:01.559Z,60.33
2023-01-19T20:01:32.898Z,41.37
2023-01-19T20:04:07.793Z,40.13
2023-01-19T20:06:38.611Z,24.67
2023-01-19T20:09:06.529Z,18.53
2023-01-19T20:11:33.323Z,10.03
2023-01-19T20:13:59.835Z,9.50
2023-01-19T20:16:26.410Z,11.30
2023-01-19T20:18:54.208Z,9.57
2023-01-19T20:21:26.909Z,15.47
2023-01-19T20:23:55.097Z,10.70
2023-01-19T20:26:25.108Z,8.13
2023-01-19T20:28:51.944Z,8.90
2023-01-19T20:31:21.479Z,9.10
2023-01-19T20:33:49.795Z,8.47
2023-01-19T20:36:17.012Z,8.20
2023-01-19T20:38:43.720Z,8.67
2023-01-19T20:41:11.695Z,8.23
2023-01-19T20:43:38.543Z,9.17
2023-01-19T20:46:05.560Z,8.30
2023-01-19T20:48:32.197Z,9.40
2023-01-19T20:51:04.371Z,8.40
2023-01-19T20:53:31.542Z,8.60
2023-01-19T20:55:57.979Z,8.37
2023-01-19T20:58:24.424Z,8.00
2023-01-19T21:00:50.928Z,7.20
2023-01-19T21:03:17.471Z,8.30
2023-01-19T21:05:46.571Z,8.90
2023-01-19T21:08:14.653Z,7.90
2023-01-19T21:10:41.700Z,8.00
2023-01-19T21:13:08.192Z,7.60
2023-01-19T21:15:34.745Z,7.70
2023-01-19T21:18:01.759Z,8.47
2023-01-19T21:20:32.861Z,8.33
2023-01-19T21:22:59.243Z,7.90
2023-01-19T21:25:25.564Z,7.97
2023-01-19T21:27:51.872Z,7.13
2023-01-19T21:30:18.502Z,7.87
2023-01-19T21:32:44.914Z,7.43
2023-01-19T21:35:11.517Z,8.43
2023-01-19T21:37:38.064Z,9.03
2023-01-19T21:40:05.012Z,9.03
2023-01-19T21:42:31.394Z,7.83
2023-01-19T21:44:57.780Z,7.97
2023-01-19T21:47:24.125Z,9.30
2023-01-19T21:49:50.439Z,8.97
2023-01-19T21:52:16.807Z,8.23
2023-01-19T21:54:43.335Z,8.30
2023-01-19T21:57:09.751Z,9.70
2023-01-19T21:59:36.087Z,7.97
2023-01-19T22:02:02.574Z,9.00
2023-01-19T22:04:29.694Z,8.70
2023-01-19T22:06:56.026Z,8.10
2023-01-19T22:09:22.420Z,8.80
2023-01-19T22:11:48.742Z,7.67
2023-01-19T22:14:15.077Z,8.30
2023-01-19T22:16:41.471Z,8.20
2023-01-19T22:19:12.799Z,7.87
2023-01-19T22:21:39.871Z,9.07
2023-01-19T22:24:06.721Z,8.37
2023-01-19T22:26:34.085Z,8.97
2023-01-19T22:29:01.585Z,8.70
2023-01-19T22:31:29.377Z,9.90
2023-01-19T22:33:56.627Z,9.33
2023-01-19T22:36:25.695Z,8.50
2023-01-19T22:38:54.463Z,9.10
2023-01-19T22:41:23.543Z,8.87
2023-01-19T22:43:52.625Z,9.10
2023-01-19T22:46:20.568Z,8.53
2023-01-19T22:48:48.300Z,9.03
2023-01-19T22:51:15.047Z,9.47
2023-01-19T22:53:41.394Z,10.27
2023-01-19T22:56:32.329Z,9.57
2023-01-19T22:58:59.471Z,8.53
2023-01-19T23:01:37.615Z,9.10
2023-01-19T23:04:05.324Z,9.33
2023-01-19T23:06:34.420Z,9.17
2023-01-19T23:09:04.780Z,9.10
2023-01-19T23:11:39.729Z,9.40
2023-01-19T23:14:07.911Z,9.40
2023-01-19T23:16:34.782Z,9.17
2023-01-19T23:19:01.365Z,9.03
2023-01-19T23:21:30.340Z,8.53
2023-01-19T23:24:02.108Z,9.47
2023-01-19T23:26:30.671Z,8.53
2023-01-19T23:28:59.370Z,10.87
2023-01-19T23:31:28.340Z,9.43
2023-01-19T23:33:57.326Z,9.50
2023-01-19T23:36:25.990Z,10.80
2023-01-19T23:38:54.474Z,8.70
2023-01-19T23:41:21.659Z,9.77
2023-01-19T23:43:48.503Z,8.90
2023-01-19T23:46:16.544Z,9.30
2023-01-19T23:48:43.377Z,9.63
2023-01-19T23:51:12.391Z,9.27
2023-01-19T23:53:38.809Z,8.43
2023-01-19T23:56:32.699Z,10.57
2023-01-19T23:59:11.582Z,9.77
